Time,TemperatureF,DewpointF,PressureIn,WindDirection,WindDirectionDegrees,WindSpeedMPH,WindSpeedGustMPH,Humidity,HourlyPrecipIn,Conditions,Clouds,dailyrainin,SolarRadiationWatts/m^2,SoftwareType,DateUTC
2013-08-16 00:05:00,61.2,59.0,30.13,SSW,208,0.0,1.0,91,0.00,,,0.00,0,weatherlink.com 1.10,2013-08-16 04:05:00,
2013-08-16 00:20:00,61.3,59.0,30.13,SSW,208,0.0,0.0,92,0.00,,,0.00,0,weatherlink.com 1.10,2013-08-16 04:20:00,
2013-08-16 00:35:00,60.8,59.0,30.13,SSW,208,0.0,0.0,92,0.00,,,0.00,0,weatherlink.com 1.10,2013-08-16 04:35:00,
2013-08-16 00:51:00,60.8,59.0,30.13,SSW,208,0.0,0.0,93,0.00,,,0.00,0,weatherlink.com 1.10,2013-08-16 04:51:00,
2013-08-16 01:06:00,60.5,59.0,30.13,SSW,208,0.0,1.0,93,0.00,,,0.00,0,weatherlink.com 1.10,2013-08-16 05:06:00,
2013-08-16 01:21:00,60.2,59.0,30.13,SSW,208,0.0,0.0,94,0.00,,,0.00,0,weatherlink.com 1.10,2013-08-16 05:21:00,
2013-08-16 01:36:00,59.9,58.0,30.12,SSW,208,0.0,0.0,94,0.00,,,0.00,0,weatherlink.com 1.10,2013-08-16 05:36:00,
2013-08-16 01:51:00,59.6,58.0,30.13,SSW,208,0.0,0.0,94,0.00,,,0.00,0,weatherlink.com 1.10,2013-08-16 05:51:00,
2013-08-16 02:06:00,59.0,58.0,30.12,SSW,208,0.0,0.0,95,0.00,,,0.00,0,weatherlink.com 1.10,2013-08-16 06:06:00,
2013-08-16 02:21:00,58.8,57.0,30.12,SSW,208,0.0,0.0,95,0.00,,,0.00,0,weatherlink.com 1.10,2013-08-16 06:21:00,
2013-08-16 02:36:00,58.3,57.0,30.12,SSW,208,0.0,0.0,95,0.00,,,0.00,0,weatherlink.com 1.10,2013-08-16 06:36:00,
2013-08-16 02:51:00,57.9,57.0,30.12,SSW,208,0.0,0.0,96,0.00,,,0.00,0,weatherlink.com 1.10,2013-08-16 06:51:00,
2013-08-16 03:06:00,57.7,57.0,30.12,SSW,208,0.0,0.0,96,0.00,,,0.00,0,weatherlink.com 1.10,2013-08-16 07:06:00,
2013-08-16 03:21:00,57.4,56.0,30.12,SSW,208,0.0,0.0,96,0.00,,,0.00,0,weatherlink.com 1.10,2013-08-16 07:21:00,
2013-08-16 03:36:00,57.3,56.0,30.11,SSW,208,0.0,1.0,96,0.00,,,0.00,0,weatherlink.com 1.10,2013-08-16 07:36:00,
2013-08-16 03:51:00,56.9,56.0,30.11,SSW,208,0.0,1.0,96,0.00,,,0.00,0,weatherlink.com 1.10,2013-08-16 07:51:00,
2013-08-16 04:06:00,56.4,55.0,30.12,SSW,208,0.0,0.0,96,0.00,,,0.00,0,weatherlink.com 1.10,2013-08-16 08:06:00,
2013-08-16 04:21:00,56.4,55.0,30.12,SSW,208,0.0,1.0,96,0.00,,,0.00,0,weatherlink.com 1.10,2013-08-16 08:21:00,
2013-08-16 04:36:00,56.0,55.0,30.12,SSW,208,0.0,0.0,96,0.00,,,0.00,0,weatherlink.com 1.10,2013-08-16 08:36:00,
2013-08-16 04:51:00,55.9,55.0,30.12,SSW,208,0.0,0.0,97,0.00,,,0.00,0,weatherlink.com 1.10,2013-08-16 08:51:00,
2013-08-16 05:06:00,55.6,55.0,30.12,SSW,208,0.0,0.0,97,0.00,,,0.00,0,weatherlink.com 1.10,2013-08-16 09:06:00,
2013-08-16 05:21:00,55.0,54.0,30.13,SSW,208,0.0,1.0,97,0.00,,,0.00,0,weatherlink.com 1.10,2013-08-16 09:21:00,
2013-08-16 05:36:00,54.9,54.0,30.13,SSW,208,0.0,1.0,97,0.00,,,0.00,0,weatherlink.com 1.10,2013-08-16 09:36:00,
2013-08-16 05:51:00,54.9,54.0,30.14,SSW,208,0.0,0.0,97,0.00,,,0.00,0,weatherlink.com 1.10,2013-08-16 09:51:00,
2013-08-16 06:06:00,54.5,54.0,30.14,SSW,208,0.0,0.0,97,0.00,,,0.00,5,weatherlink.com 1.10,2013-08-16 10:06:00,
2013-08-16 06:21:00,54.5,54.0,30.14,SSW,208,0.0,0.0,97,0.00,,,0.00,12,weatherlink.com 1.10,2013-08-16 10:21:00,
2013-08-16 06:36:00,54.4,54.0,30.14,SSW,208,0.0,0.0,97,0.00,,,0.00,19,weatherlink.com 1.10,2013-08-16 10:36:00,
2013-08-16 06:51:00,54.8,54.0,30.14,SSW,208,0.0,0.0,97,0.00,,,0.00,32,weatherlink.com 1.10,2013-08-16 10:51:00,
2013-08-16 07:06:00,55.4,55.0,30.14,SSW,208,0.0,0.0,97,0.00,,,0.00,32,weatherlink.com 1.10,2013-08-16 11:06:00,
2013-08-16 07:21:00,57.0,56.0,30.14,NNW,343,0.0,5.0,97,0.00,,,0.00,35,weatherlink.com 1.10,2013-08-16 11:21:00,
2013-08-16 07:37:00,58.7,58.0,30.14,NNW,343,0.0,0.0,97,0.00,,,0.00,40,weatherlink.com 1.10,2013-08-16 11:37:00,
2013-08-16 07:52:00,60.6,60.0,30.14,NNW,343,0.0,0.0,96,0.00,,,0.00,40,weatherlink.com 1.10,2013-08-16 11:52:00,
2013-08-16 08:07:00,61.7,60.0,30.14,NNW,343,0.0,1.0,95,0.00,,,0.00,39,weatherlink.com 1.10,2013-08-16 12:07:00,
2013-08-16 08:23:00,62.5,61.0,30.14,NNW,343,0.0,1.0,94,0.00,,,0.00,77,weatherlink.com 1.10,2013-08-16 12:23:00,
2013-08-16 08:37:00,63.7,62.0,30.14,NNW,343,0.0,1.0,93,0.00,,,0.00,54,weatherlink.com 1.10,2013-08-16 12:37:00,
2013-08-16 08:52:00,64.6,62.0,30.14,NNW,343,0.0,1.0,91,0.00,,,0.00,199,weatherlink.com 1.10,2013-08-16 12:52:00,
2013-08-16 09:08:00,65.8,62.0,30.14,NNE,19,0.0,3.0,88,0.00,,,0.00,72,weatherlink.com 1.10,2013-08-16 13:08:00,
2013-08-16 09:24:00,67.5,63.0,30.14,NNE,19,0.0,1.0,86,0.00,,,0.00,77,weatherlink.com 1.10,2013-08-16 13:24:00,
2013-08-16 09:39:00,68.8,64.0,30.15,NNE,19,0.0,1.0,83,0.00,,,0.00,69,weatherlink.com 1.10,2013-08-16 13:39:00,
2013-08-16 09:54:00,70.6,60.0,30.15,West,273,0.0,4.0,70,0.00,,,0.00,86,weatherlink.com 1.10,2013-08-16 13:54:00,
2013-08-16 10:09:00,71.8,58.0,30.15,West,281,0.0,5.0,62,0.00,,,0.00,97,weatherlink.com 1.10,2013-08-16 14:09:00,
2013-08-16 10:24:00,72.1,57.0,30.15,West,281,0.0,1.0,60,0.00,,,0.00,151,weatherlink.com 1.10,2013-08-16 14:24:00,
2013-08-16 10:38:00,73.1,58.0,30.15,West,281,0.0,1.0,60,0.00,,,0.00,670,weatherlink.com 1.10,2013-08-16 14:38:00,
2013-08-16 10:54:00,74.5,57.0,30.16,SW,231,0.0,4.0,55,0.00,,,0.00,758,weatherlink.com 1.10,2013-08-16 14:54:00,
2013-08-16 11:09:00,74.8,57.0,30.16,SW,230,0.0,1.0,55,0.00,,,0.00,879,weatherlink.com 1.10,2013-08-16 15:09:00,
2013-08-16 11:24:00,76.2,56.0,30.16,SSW,208,0.0,7.0,49,0.00,,,0.00,237,weatherlink.com 1.10,2013-08-16 15:24:00,
2013-08-16 11:39:00,75.5,54.0,30.16,SSW,205,3.0,5.0,48,0.00,,,0.00,1007,weatherlink.com 1.10,2013-08-16 15:39:00,
2013-08-16 11:54:00,75.8,56.0,30.15,SSW,210,0.0,1.0,51,0.00,,,0.00,953,weatherlink.com 1.10,2013-08-16 15:54:00,
2013-08-16 12:10:00,76.0,56.0,30.15,West,276,0.0,4.0,51,0.00,,,0.00,294,weatherlink.com 1.10,2013-08-16 16:10:00,
2013-08-16 12:25:00,77.0,57.0,30.15,SSE,155,1.0,6.0,51,0.00,,,0.00,926,weatherlink.com 1.10,2013-08-16 16:25:00,
2013-08-16 12:40:00,77.8,58.0,30.15,SW,221,4.0,7.0,50,0.00,,,0.00,185,weatherlink.com 1.10,2013-08-16 16:40:00,
2013-08-16 12:55:00,75.6,56.0,30.15,South,188,0.0,7.0,50,0.00,,,0.00,223,weatherlink.com 1.10,2013-08-16 16:55:00,
2013-08-16 13:10:00,75.7,57.0,30.15,South,180,1.0,4.0,52,0.00,,,0.00,262,weatherlink.com 1.10,2013-08-16 17:10:00,
2013-08-16 13:25:00,74.9,55.0,30.15,South,174,1.0,7.0,50,0.00,,,0.00,956,weatherlink.com 1.10,2013-08-16 17:25:00,
2013-08-16 13:41:00,77.4,56.0,30.15,SW,223,2.0,7.0,47,0.00,,,0.00,1002,weatherlink.com 1.10,2013-08-16 17:41:00,
2013-08-16 13:56:00,77.1,55.0,30.15,SSE,163,1.0,6.0,47,0.00,,,0.00,343,weatherlink.com 1.10,2013-08-16 17:56:00,
2013-08-16 14:11:00,75.8,55.0,30.16,SW,232,4.0,7.0,48,0.00,,,0.00,330,weatherlink.com 1.10,2013-08-16 18:11:00,
2013-08-16 14:26:00,76.4,54.0,30.15,SSE,156,3.0,8.0,46,0.00,,,0.00,854,weatherlink.com 1.10,2013-08-16 18:26:00,
2013-08-16 14:41:00,77.4,55.0,30.15,West,269,1.0,8.0,46,0.00,,,0.00,837,weatherlink.com 1.10,2013-08-16 18:41:00,
2013-08-16 14:56:00,78.4,55.0,30.14,SSE,157,0.0,8.0,44,0.00,,,0.00,814,weatherlink.com 1.10,2013-08-16 18:56:00,
2013-08-16 15:11:00,77.6,55.0,30.14,SSW,197,1.0,6.0,45,0.00,,,0.00,782,weatherlink.com 1.10,2013-08-16 19:11:00,
2013-08-16 15:27:00,78.3,55.0,30.14,SSW,199,2.0,7.0,44,0.00,,,0.00,751,weatherlink.com 1.10,2013-08-16 19:27:00,
2013-08-16 15:42:00,77.1,54.0,30.13,SSW,211,2.0,8.0,45,0.00,,,0.00,715,weatherlink.com 1.10,2013-08-16 19:42:00,
2013-08-16 15:56:00,76.9,55.0,30.14,SSW,211,2.0,8.0,47,0.00,,,0.00,673,weatherlink.com 1.10,2013-08-16 19:56:00,
2013-08-16 16:12:00,76.9,56.0,30.14,SSW,192,3.0,7.0,48,0.00,,,0.00,629,weatherlink.com 1.10,2013-08-16 20:12:00,
2013-08-16 16:27:00,76.9,56.0,30.14,SW,215,3.0,8.0,49,0.00,,,0.00,584,weatherlink.com 1.10,2013-08-16 20:27:00,
2013-08-16 16:42:00,76.1,58.0,30.14,West,263,3.0,8.0,54,0.00,,,0.00,533,weatherlink.com 1.10,2013-08-16 20:42:00,
2013-08-16 16:57:00,76.0,59.0,30.14,South,176,2.0,7.0,55,0.00,,,0.00,487,weatherlink.com 1.10,2013-08-16 20:57:00,
2013-08-16 17:13:00,75.2,58.0,30.14,SSW,212,0.0,8.0,55,0.00,,,0.00,434,weatherlink.com 1.10,2013-08-16 21:13:00,
2013-08-16 17:27:00,75.1,59.0,30.14,SSW,208,1.0,7.0,57,0.00,,,0.00,394,weatherlink.com 1.10,2013-08-16 21:27:00,
2013-08-16 17:42:00,74.7,59.0,30.15,SW,223,0.0,7.0,58,0.00,,,0.00,248,weatherlink.com 1.10,2013-08-16 21:42:00,
2013-08-16 17:58:00,74.4,58.0,30.15,SW,231,2.0,7.0,57,0.00,,,0.00,294,weatherlink.com 1.10,2013-08-16 21:58:00,
2013-08-16 18:14:00,73.8,58.0,30.15,South,189,0.0,7.0,58,0.00,,,0.00,216,weatherlink.com 1.10,2013-08-16 22:14:00,
2013-08-16 18:28:00,73.6,59.0,30.15,SSW,210,2.0,6.0,60,0.00,,,0.00,188,weatherlink.com 1.10,2013-08-16 22:28:00,
2013-08-16 18:45:00,73.0,58.0,30.15,SSW,194,0.0,6.0,60,0.00,,,0.00,132,weatherlink.com 1.10,2013-08-16 22:45:00,
2013-08-16 18:58:00,72.5,58.0,30.15,SSW,207,1.0,7.0,61,0.00,,,0.00,90,weatherlink.com 1.10,2013-08-16 22:58:00,
2013-08-16 19:15:00,71.7,58.0,30.15,SSW,194,2.0,4.0,63,0.00,,,0.00,32,weatherlink.com 1.10,2013-08-16 23:15:00,
2013-08-16 19:28:00,70.8,59.0,30.15,SSW,209,0.0,3.0,66,0.00,,,0.00,18,weatherlink.com 1.10,2013-08-16 23:28:00,
2013-08-16 19:44:00,69.7,59.0,30.16,SSW,209,0.0,0.0,69,0.00,,,0.00,5,weatherlink.com 1.10,2013-08-16 23:44:00,
2013-08-16 19:59:00,68.4,60.0,30.16,SSW,209,0.0,0.0,74,0.00,,,0.00,0,weatherlink.com 1.10,2013-08-16 23:59:00,
2013-08-16 20:14:00,67.3,60.0,30.17,SSW,209,0.0,1.0,77,0.00,,,0.00,0,weatherlink.com 1.10,2013-08-17 00:14:00,
2013-08-16 20:29:00,66.1,60.0,30.18,SSW,209,0.0,0.0,81,0.00,,,0.00,0,weatherlink.com 1.10,2013-08-17 00:29:00,
2013-08-16 20:44:00,64.9,60.0,30.18,SSW,209,0.0,0.0,84,0.00,,,0.00,0,weatherlink.com 1.10,2013-08-17 00:44:00,
2013-08-16 21:00:00,63.8,60.0,30.18,SSW,209,0.0,1.0,87,0.00,,,0.00,0,weatherlink.com 1.10,2013-08-17 01:00:00,
2013-08-16 21:14:00,63.4,60.0,30.19,SSW,209,0.0,1.0,87,0.00,,,0.00,0,weatherlink.com 1.10,2013-08-17 01:14:00,
2013-08-16 21:29:00,62.9,60.0,30.19,SSW,209,0.0,0.0,89,0.00,,,0.00,0,weatherlink.com 1.10,2013-08-17 01:29:00,
2013-08-16 21:45:00,62.6,60.0,30.19,SSW,209,0.0,0.0,90,0.00,,,0.00,0,weatherlink.com 1.10,2013-08-17 01:45:00,
2013-08-16 22:00:00,62.1,60.0,30.19,SSW,209,0.0,0.0,91,0.00,,,0.00,0,weatherlink.com 1.10,2013-08-17 02:00:00,
2013-08-16 22:15:00,61.9,59.0,30.19,SSW,209,0.0,0.0,91,0.00,,,0.00,0,weatherlink.com 1.10,2013-08-17 02:15:00,
2013-08-16 22:30:00,61.6,59.0,30.19,SSW,209,0.0,0.0,92,0.00,,,0.00,0,weatherlink.com 1.10,2013-08-17 02:30:00,
2013-08-16 22:45:00,61.3,59.0,30.19,SSW,209,0.0,1.0,93,0.00,,,0.00,0,weatherlink.com 1.10,2013-08-17 02:45:00,
2013-08-16 23:00:00,61.0,59.0,30.20,SSW,209,0.0,1.0,93,0.00,,,0.00,0,weatherlink.com 1.10,2013-08-17 03:00:00,
2013-08-16 23:15:00,60.7,59.0,30.20,SSW,209,0.0,1.0,93,0.00,,,0.00,0,weatherlink.com 1.10,2013-08-17 03:15:00,
2013-08-16 23:30:00,60.5,59.0,30.20,SSW,209,0.0,0.0,93,0.00,,,0.00,0,weatherlink.com 1.10,2013-08-17 03:30:00,
2013-08-16 23:46:00,60.1,58.0,30.20,SSW,209,0.0,1.0,94,0.00,,,0.00,0,weatherlink.com 1.10,2013-08-17 03:46:00,